createdAt,value
2023-04-02T00:00:16.472Z,980.01
2023-04-02T00:01:23.860Z,980.05
2023-04-02T00:02:16.460Z,980.04
2023-04-02T00:03:16.523Z,980.06
2023-04-02T00:04:17.485Z,980.08
2023-04-02T00:05:16.524Z,980.09
2023-04-02T00:06:16.421Z,980.08
2023-04-02T00:07:16.390Z,980.09
2023-04-02T00:08:16.393Z,980.10
2023-04-02T00:09:16.357Z,980.06
2023-04-02T00:10:16.334Z,980.12
2023-04-02T00:11:16.371Z,980.16
2023-04-02T00:12:16.343Z,980.12
2023-04-02T00:13:16.349Z,980.12
2023-04-02T00:14:16.325Z,980.20
2023-04-02T00:15:16.320Z,980.20
2023-04-02T00:16:16.351Z,980.18
2023-04-02T00:17:16.307Z,980.22
2023-04-02T00:18:16.329Z,980.22
2023-04-02T00:19:16.323Z,980.22
2023-04-02T00:20:16.284Z,980.26
2023-04-02T00:21:16.291Z,980.26
2023-04-02T00:22:16.261Z,980.28
2023-04-02T00:23:16.242Z,980.28
2023-04-02T00:24:16.284Z,980.30
2023-04-02T00:25:16.206Z,980.30
2023-04-02T00:26:16.244Z,980.30
2023-04-02T00:27:16.187Z,980.35
2023-04-02T00:28:16.351Z,980.33
2023-04-02T00:29:16.184Z,980.36
2023-04-02T00:30:16.176Z,980.43
2023-04-02T00:31:16.130Z,980.44
2023-04-02T00:32:16.168Z,980.44
2023-04-02T00:33:16.131Z,980.46
2023-04-02T00:34:16.091Z,980.48
2023-04-02T00:35:16.130Z,980.51
2023-04-02T00:36:16.117Z,980.57
2023-04-02T00:37:16.165Z,980.58
2023-04-02T00:38:16.123Z,980.69
2023-04-02T00:39:16.040Z,980.71
2023-04-02T00:40:16.068Z,980.67
2023-04-02T00:41:16.086Z,980.73
2023-04-02T00:42:16.053Z,980.74
2023-04-02T00:43:16.024Z,980.73
2023-04-02T00:44:16.110Z,980.83
2023-04-02T00:45:16.034Z,980.91
2023-04-02T00:46:16.026Z,980.85
2023-04-02T00:47:16.016Z,980.90
2023-04-02T00:48:16.061Z,980.90
2023-04-02T00:49:16.011Z,980.91
2023-04-02T00:50:15.958Z,980.88
2023-04-02T00:51:15.930Z,980.93
2023-04-02T00:52:15.999Z,980.99
2023-04-02T00:53:15.918Z,981.04
2023-04-02T00:54:16.033Z,981.11
2023-04-02T00:55:15.979Z,981.06
2023-04-02T00:56:15.886Z,981.01
2023-04-02T00:57:15.921Z,981.04
2023-04-02T00:58:15.873Z,981.07
2023-04-02T00:59:15.836Z,981.10
2023-04-02T01:00:15.892Z,981.14
2023-04-02T01:01:15.931Z,981.18
2023-04-02T01:02:15.865Z,981.12
2023-04-02T01:03:15.955Z,981.15
2023-04-02T01:04:15.904Z,981.11
2023-04-02T01:05:15.823Z,981.20
2023-04-02T01:06:15.823Z,981.23
2023-04-02T01:07:15.794Z,981.27
2023-04-02T01:08:15.823Z,981.33
2023-04-02T01:09:15.790Z,981.34
2023-04-02T01:10:15.750Z,981.29
2023-04-02T01:11:15.746Z,981.35
2023-04-02T01:12:15.769Z,981.36
2023-04-02T01:13:15.743Z,981.41
2023-04-02T01:14:15.724Z,981.44
2023-04-02T01:15:15.757Z,981.45
2023-04-02T01:16:15.752Z,981.47
2023-04-02T01:17:15.703Z,981.53
2023-04-02T01:18:15.679Z,981.49
2023-04-02T01:19:15.678Z,981.47
2023-04-02T01:20:15.739Z,981.50
2023-04-02T01:21:15.645Z,981.47
2023-04-02T01:22:15.654Z,981.51
2023-04-02T01:23:15.639Z,981.59
2023-04-02T01:24:15.674Z,981.62
2023-04-02T01:25:15.635Z,981.61
2023-04-02T01:26:15.599Z,981.56
2023-04-02T01:27:15.613Z,981.59
2023-04-02T01:28:15.620Z,981.72
2023-04-02T01:29:15.574Z,981.70
2023-04-02T01:30:15.588Z,981.77
2023-04-02T01:31:15.570Z,981.68
2023-04-02T01:32:15.630Z,981.85
2023-04-02T01:33:15.529Z,981.80
2023-04-02T01:34:15.521Z,981.82
2023-04-02T01:35:15.550Z,981.82
2023-04-02T01:36:15.535Z,981.80
2023-04-02T01:37:15.512Z,981.87
2023-04-02T01:38:15.511Z,981.95
2023-04-02T01:39:15.516Z,981.90
2023-04-02T01:40:15.592Z,981.84
2023-04-02T01:41:15.441Z,981.87
2023-04-02T01:42:15.468Z,981.94
2023-04-02T01:43:15.477Z,981.92
2023-04-02T01:44:15.440Z,981.95
2023-04-02T01:45:15.439Z,982.01
2023-04-02T01:46:15.410Z,982.10
2023-04-02T01:47:15.376Z,982.05
2023-04-02T01:48:15.388Z,982.03
2023-04-02T01:49:15.382Z,982.09
2023-04-02T01:50:15.393Z,982.06
2023-04-02T01:51:15.371Z,982.13
2023-04-02T01:52:15.322Z,982.12
2023-04-02T01:53:15.427Z,982.18
2023-04-02T01:54:15.346Z,982.28
2023-04-02T01:55:15.299Z,982.25
2023-04-02T01:56:15.302Z,982.34
2023-04-02T01:57:15.366Z,982.30
2023-04-02T01:58:15.328Z,982.25
2023-04-02T01:59:15.386Z,982.30
2023-04-02T02:00:15.294Z,982.36
2023-04-02T02:01:15.317Z,982.31
2023-04-02T02:02:15.293Z,982.32
2023-04-02T02:03:15.244Z,982.35
2023-04-02T02:04:15.237Z,982.36
2023-04-02T02:05:15.192Z,982.42
2023-04-02T02:06:15.178Z,982.44
2023-04-02T02:07:15.249Z,982.43
2023-04-02T02:08:15.191Z,982.45
2023-04-02T02:09:15.173Z,982.50
2023-04-02T02:10:15.160Z,982.51
2023-04-02T02:11:15.129Z,982.45
2023-04-02T02:12:15.159Z,982.50
2023-04-02T02:13:15.285Z,982.46
2023-04-02T02:14:15.148Z,982.57
2023-04-02T02:15:15.192Z,982.55
2023-04-02T02:16:15.131Z,982.55
2023-04-02T02:18:33.606Z,982.68
2023-04-02T02:19:33.580Z,982.55
2023-04-02T02:20:33.573Z,982.59
2023-04-02T02:21:34.678Z,982.63
2023-04-02T02:22:34.670Z,982.65
2023-04-02T02:23:34.694Z,982.72
2023-04-02T02:24:34.665Z,982.70
2023-04-02T02:25:34.752Z,982.76
2023-04-02T02:26:34.627Z,982.70
2023-04-02T02:27:34.626Z,982.74
2023-04-02T02:28:34.633Z,982.84
2023-04-02T02:29:34.609Z,982.87
2023-04-02T02:30:34.603Z,982.81
2023-04-02T02:31:34.608Z,982.84
2023-04-02T02:32:34.605Z,982.91
2023-04-02T02:33:34.576Z,982.92
2023-04-02T02:34:34.549Z,982.91
2023-04-02T02:35:35.013Z,983.04
2023-04-02T02:36:34.553Z,982.85
2023-04-02T02:37:34.525Z,982.99
2023-04-02T02:38:34.491Z,983.02
2023-04-02T02:39:34.499Z,983.06
2023-04-02T02:40:34.518Z,983.07
2023-04-02T02:41:34.515Z,983.07
2023-04-02T02:42:34.481Z,983.15
2023-04-02T02:43:34.486Z,983.14
2023-04-02T02:44:34.467Z,983.19
2023-04-02T02:45:34.602Z,983.21
2023-04-02T02:46:34.438Z,983.24
2023-04-02T02:47:34.491Z,983.17
2023-04-02T02:48:35.581Z,983.28
2023-04-02T02:49:34.383Z,983.30
2023-04-02T02:50:35.416Z,983.31
2023-04-02T02:51:34.408Z,983.34
2023-04-02T02:52:34.358Z,983.44
2023-04-02T02:53:34.396Z,983.38
2023-04-02T02:54:34.414Z,983.38
2023-04-02T02:55:34.690Z,983.40
2023-04-02T02:56:34.333Z,983.44
2023-04-02T02:57:34.388Z,983.45
2023-04-02T02:58:34.330Z,983.47
2023-04-02T02:59:34.332Z,983.41
2023-04-02T03:00:34.302Z,983.36
2023-04-02T03:01:34.333Z,983.44
2023-04-02T03:02:34.328Z,983.45
2023-04-02T03:03:34.594Z,983.49
2023-04-02T03:04:34.226Z,983.47
2023-04-02T03:05:34.534Z,983.45
2023-04-02T03:06:34.229Z,983.54
2023-04-02T03:07:34.235Z,983.56
2023-04-02T03:08:34.262Z,983.62
2023-04-02T03:09:34.194Z,983.69
2023-04-02T03:10:34.188Z,983.68
2023-04-02T03:11:34.198Z,983.64
2023-04-02T03:12:34.181Z,983.61
2023-04-02T03:13:34.158Z,983.68
2023-04-02T03:14:34.146Z,983.69
2023-04-02T03:15:34.418Z,983.69
2023-04-02T03:16:34.145Z,983.70
2023-04-02T03:17:34.189Z,983.77
2023-04-02T03:18:34.113Z,983.77
2023-04-02T03:19:34.114Z,983.85
2023-04-02T03:20:34.089Z,983.93
2023-04-02T03:21:34.072Z,983.90
2023-04-02T03:22:34.091Z,983.87
2023-04-02T03:23:34.085Z,984.00
2023-04-02T03:24:34.093Z,983.96
2023-04-02T03:25:34.330Z,984.00
2023-04-02T03:26:34.066Z,984.05
2023-04-02T03:27:34.148Z,984.02
2023-04-02T03:28:34.042Z,984.07
2023-04-02T03:29:34.010Z,984.07
2023-04-02T03:30:34.030Z,984.08
2023-04-02T03:31:34.072Z,984.07
2023-04-02T03:32:34.013Z,984.15
2023-04-02T03:33:33.982Z,984.17
2023-04-02T03:34:33.998Z,984.19
2023-04-02T03:35:34.387Z,984.26
2023-04-02T03:36:33.944Z,984.31
2023-04-02T03:37:33.925Z,984.26
2023-04-02T03:38:34.938Z,984.32
2023-04-02T03:39:33.914Z,984.28
2023-04-02T03:40:33.886Z,984.33
2023-04-02T03:41:33.914Z,984.38
2023-04-02T03:42:33.896Z,984.37
2023-04-02T03:43:33.903Z,984.36
2023-04-02T03:44:33.874Z,984.52
2023-04-02T03:45:34.086Z,984.42
2023-04-02T03:46:33.874Z,984.45
2023-04-02T03:47:33.870Z,984.43
2023-04-02T03:48:33.812Z,984.47
2023-04-02T03:49:33.814Z,984.53
2023-04-02T03:50:33.834Z,984.55
2023-04-02T03:51:33.814Z,984.50
2023-04-02T03:52:33.846Z,984.63
2023-04-02T03:53:33.763Z,984.63
2023-04-02T03:54:33.789Z,984.60
2023-04-02T03:55:34.061Z,984.59
2023-04-02T03:56:33.752Z,984.62
2023-04-02T03:57:33.774Z,984.64
2023-04-02T03:58:33.760Z,984.66
2023-04-02T03:59:33.712Z,984.66
2023-04-02T04:00:33.710Z,984.71
2023-04-02T04:01:33.799Z,984.67
2023-04-02T04:02:33.701Z,984.79
2023-04-02T04:03:33.768Z,984.70
2023-04-02T04:04:33.745Z,984.78
2023-04-02T04:05:33.802Z,984.82
2023-04-02T04:06:33.630Z,984.79
2023-04-02T04:07:33.613Z,984.78
2023-04-02T04:08:33.638Z,984.83
2023-04-02T04:09:33.657Z,984.93
2023-04-02T04:10:33.616Z,984.95
2023-04-02T04:11:33.632Z,984.97
2023-04-02T04:12:33.586Z,984.98
2023-04-02T04:13:33.585Z,985.01
2023-04-02T04:14:33.579Z,985.01
2023-04-02T04:15:33.994Z,985.00
2023-04-02T04:16:33.572Z,984.96
2023-04-02T04:17:33.576Z,985.04
2023-04-02T04:18:33.550Z,985.03
2023-04-02T04:19:33.525Z,985.10
2023-04-02T04:20:33.485Z,985.07
2023-04-02T04:21:33.483Z,985.05
2023-04-02T04:22:33.542Z,985.14
2023-04-02T04:23:33.481Z,985.15
2023-04-02T04:24:33.476Z,985.12
2023-04-02T04:25:33.858Z,985.22
2023-04-02T04:26:33.462Z,985.22
2023-04-02T04:27:33.504Z,985.23
2023-04-02T04:28:33.440Z,985.24
2023-04-02T04:29:33.431Z,985.25
2023-04-02T04:30:33.421Z,985.29
2023-04-02T04:31:33.440Z,985.33
2023-04-02T04:32:33.424Z,985.29
2023-04-02T04:33:33.409Z,985.32
2023-04-02T04:34:33.367Z,985.40
2023-04-02T04:35:33.516Z,985.46
2023-04-02T04:36:33.352Z,985.48
2023-04-02T04:37:33.357Z,985.58
2023-04-02T04:38:33.310Z,985.49
2023-04-02T04:39:33.328Z,985.57
2023-04-02T04:40:33.333Z,985.54
2023-04-02T04:41:33.301Z,985.46
2023-04-02T04:42:33.305Z,985.60
2023-04-02T04:43:33.301Z,985.48
2023-04-02T04:44:33.307Z,985.64
2023-04-02T04:45:33.491Z,985.68
2023-04-02T04:46:33.298Z,985.70
2023-04-02T04:47:33.334Z,985.63
2023-04-02T04:48:35.168Z,985.64
2023-04-02T04:49:33.262Z,985.69
2023-04-02T04:50:33.189Z,985.71
2023-04-02T04:51:33.195Z,985.72
2023-04-02T04:52:33.196Z,985.81
2023-04-02T04:53:33.228Z,985.71
2023-04-02T04:54:33.186Z,985.74
2023-04-02T04:55:33.528Z,985.81
2023-04-02T04:56:33.154Z,985.85
2023-04-02T04:57:33.121Z,985.86
2023-04-02T04:58:33.183Z,985.87
2023-04-02T04:59:33.148Z,985.91
2023-04-02T05:00:33.159Z,985.92
2023-04-02T05:01:33.124Z,985.92
2023-04-02T05:02:33.144Z,985.94
2023-04-02T05:03:33.094Z,986.00
2023-04-02T05:04:33.091Z,986.04
2023-04-02T05:05:33.461Z,986.06
2023-04-02T05:06:33.051Z,986.00
2023-04-02T05:07:33.068Z,986.07
2023-04-02T05:08:33.053Z,986.12
2023-04-02T05:09:33.041Z,986.18
2023-04-02T05:10:33.006Z,986.14
2023-04-02T05:11:33.001Z,986.17
2023-04-02T05:12:32.991Z,986.19
2023-04-02T05:13:32.979Z,986.24
2023-04-02T05:14:32.954Z,986.16
2023-04-02T05:15:32.948Z,986.25
2023-04-02T05:16:33.010Z,986.21
2023-04-02T05:17:33.039Z,986.38
2023-04-02T05:18:32.924Z,986.31
2023-04-02T05:19:32.929Z,986.35
2023-04-02T05:20:32.934Z,986.38
2023-04-02T05:21:32.922Z,986.38
2023-04-02T05:22:32.901Z,986.51
2023-04-02T05:23:32.889Z,986.36
2023-04-02T05:24:32.870Z,986.39
2023-04-02T05:25:33.046Z,986.40
2023-04-02T05:26:32.896Z,986.47
2023-04-02T05:27:32.844Z,986.52
2023-04-02T05:28:32.822Z,986.56
2023-04-02T05:29:32.817Z,986.57
2023-04-02T05:30:32.813Z,986.59
2023-04-02T05:31:32.789Z,986.57
2023-04-02T05:32:32.824Z,986.53
2023-04-02T05:33:32.781Z,986.59
2023-04-02T05:34:32.796Z,986.67
2023-04-02T05:35:32.791Z,986.62
2023-04-02T05:36:32.746Z,986.68
2023-04-02T05:37:32.758Z,986.65
2023-04-02T05:38:32.726Z,986.77
2023-04-02T05:39:32.736Z,986.72
2023-04-02T05:40:32.738Z,986.80
2023-04-02T05:41:32.717Z,986.82
2023-04-02T05:42:32.694Z,986.83
2023-04-02T05:43:32.728Z,986.86
2023-04-02T05:44:32.676Z,986.92
2023-04-02T05:45:32.799Z,986.94
2023-04-02T05:46:32.741Z,986.98
2023-04-02T05:47:32.709Z,986.97
2023-04-02T05:48:32.670Z,986.89
2023-04-02T05:49:32.641Z,987.07
2023-04-02T05:50:32.594Z,986.97
2023-04-02T05:51:32.617Z,987.02
2023-04-02T05:52:32.597Z,987.14
2023-04-02T05:53:32.572Z,987.09
2023-04-02T05:54:32.624Z,987.09
2023-04-02T05:55:32.893Z,987.12
2023-04-02T05:56:32.573Z,987.23
2023-04-02T05:57:42.706Z,987.16
2023-04-02T05:58:36.293Z,987.19
2023-04-02T05:59:33.538Z,987.31
2023-04-02T06:00:32.556Z,987.24
2023-04-02T06:01:32.522Z,987.37
2023-04-02T06:02:32.569Z,987.34
2023-04-02T06:03:32.630Z,987.32
2023-04-02T06:04:32.475Z,987.32
2023-04-02T06:05:32.509Z,987.32
2023-04-02T06:06:32.494Z,987.38
2023-04-02T06:07:32.451Z,987.38
2023-04-02T06:08:32.410Z,987.41
2023-04-02T06:09:32.418Z,987.42
2023-04-02T06:10:32.418Z,987.47
2023-04-02T06:11:32.471Z,987.56
2023-04-02T06:12:32.386Z,987.48
2023-04-02T06:13:32.365Z,987.58
2023-04-02T06:14:32.377Z,987.57
2023-04-02T06:15:32.366Z,987.61
2023-04-02T06:16:32.391Z,987.69
2023-04-02T06:17:32.440Z,987.69
2023-04-02T06:18:32.341Z,987.68
2023-04-02T06:19:32.330Z,987.69
2023-04-02T06:20:32.333Z,987.77
2023-04-02T06:21:32.365Z,987.74
2023-04-02T06:22:32.297Z,987.95
2023-04-02T06:23:32.334Z,987.75
2023-04-02T06:24:32.323Z,987.80
2023-04-02T06:25:32.290Z,987.79
2023-04-02T06:26:32.270Z,987.83
2023-04-02T06:27:33.279Z,987.86
2023-04-02T06:28:32.306Z,987.94
2023-04-02T06:29:32.259Z,987.90
2023-04-02T06:30:32.218Z,987.93
2023-04-02T06:31:32.197Z,987.94
2023-04-02T06:32:32.286Z,987.89
2023-04-02T06:33:32.214Z,987.99
2023-04-02T06:34:32.198Z,988.07
2023-04-02T06:35:32.222Z,988.00
2023-04-02T06:36:32.233Z,988.07
2023-04-02T06:37:32.190Z,988.06
2023-04-02T06:38:32.144Z,988.04
2023-04-02T06:39:32.144Z,988.17
2023-04-02T06:40:32.149Z,988.13
2023-04-02T06:41:32.116Z,988.14
2023-04-02T06:42:32.147Z,988.15
2023-04-02T06:43:32.097Z,988.23
2023-04-02T06:44:32.106Z,988.27
2023-04-02T06:45:32.130Z,988.26
2023-04-02T06:46:32.277Z,988.28
2023-04-02T06:47:33.080Z,988.29
2023-04-02T06:48:32.033Z,988.25
2023-04-02T06:49:32.054Z,988.29
2023-04-02T06:50:32.048Z,988.38
2023-04-02T06:51:32.025Z,988.41
2023-04-02T06:52:33.405Z,988.41
2023-04-02T06:53:32.047Z,988.40
2023-04-02T06:54:31.988Z,988.48
2023-04-02T06:55:32.006Z,988.48
2023-04-02T06:56:32.008Z,988.57
2023-04-02T06:57:32.037Z,988.52
2023-04-02T06:58:31.953Z,988.60
2023-04-02T06:59:31.959Z,988.55
2023-04-02T07:00:31.925Z,988.65
2023-04-02T07:01:31.980Z,988.67
2023-04-02T07:02:31.965Z,988.67
2023-04-02T07:03:31.931Z,988.70
2023-04-02T07:04:31.981Z,988.68
2023-04-02T07:05:31.906Z,988.74
2023-04-02T07:06:31.894Z,988.75
2023-04-02T07:07:31.860Z,988.83
2023-04-02T07:08:31.861Z,988.91
2023-04-02T07:09:31.817Z,988.77
2023-04-02T07:10:31.875Z,988.81
2023-04-02T07:11:31.836Z,988.87
2023-04-02T07:12:31.845Z,988.88
2023-04-02T07:13:31.781Z,988.98
2023-04-02T07:14:31.800Z,988.92
2023-04-02T07:15:31.764Z,988.92
2023-04-02T07:16:31.789Z,988.95
2023-04-02T07:17:31.836Z,988.94
2023-04-02T07:18:31.772Z,989.04
2023-04-02T07:19:31.736Z,989.03
2023-04-02T07:20:31.761Z,989.11
2023-04-02T07:21:31.740Z,988.98
2023-04-02T07:22:31.770Z,989.07
2023-04-02T07:23:31.689Z,989.15
2023-04-02T07:24:31.684Z,989.18
2023-04-02T07:25:31.662Z,989.15
2023-04-02T07:26:31.668Z,989.20
2023-04-02T07:27:31.663Z,989.25
2023-04-02T07:28:31.629Z,989.15
2023-04-02T07:29:31.667Z,989.24
2023-04-02T07:30:31.673Z,989.31
2023-04-02T07:31:31.725Z,989.33
2023-04-02T07:32:31.641Z,989.26
2023-04-02T07:33:31.677Z,989.29
2023-04-02T07:34:31.603Z,989.31
2023-04-02T07:35:32.738Z,989.33
2023-04-02T07:36:31.600Z,989.42
2023-04-02T07:37:31.585Z,989.40
2023-04-02T07:38:31.538Z,989.44
2023-04-02T07:39:31.548Z,989.41
2023-04-02T07:40:31.531Z,989.49
2023-04-02T07:41:31.565Z,989.66
2023-04-02T07:42:31.597Z,989.49
2023-04-02T07:43:31.542Z,989.54
2023-04-02T07:44:31.513Z,989.61
2023-04-02T07:45:31.465Z,989.59
2023-04-02T07:46:31.501Z,989.65
2023-04-02T07:47:31.563Z,989.67
2023-04-02T07:48:31.456Z,989.75
2023-04-02T07:49:31.443Z,989.69
2023-04-02T07:50:31.466Z,989.70
2023-04-02T07:51:31.442Z,989.72
2023-04-02T07:52:31.426Z,989.75
2023-04-02T07:53:31.471Z,989.86
2023-04-02T07:54:31.407Z,989.73
2023-04-02T07:55:31.426Z,989.80
2023-04-02T07:56:31.388Z,989.80
2023-04-02T07:57:31.427Z,989.91
2023-04-02T07:58:31.355Z,989.83
2023-04-02T07:59:31.351Z,989.90
2023-04-02T08:00:31.357Z,989.83
2023-04-02T08:01:31.391Z,989.92
2023-04-02T08:02:31.402Z,989.90
2023-04-02T08:03:31.466Z,989.97
2023-04-02T08:04:31.290Z,990.01
2023-04-02T08:05:31.278Z,989.93
2023-04-02T08:06:31.280Z,989.98
2023-04-02T08:07:31.280Z,990.05
2023-04-02T08:08:31.251Z,990.03
2023-04-02T08:09:31.246Z,990.18
2023-04-02T08:10:31.225Z,990.19
2023-04-02T08:11:31.967Z,990.24
2023-04-02T08:12:31.256Z,990.21
2023-04-02T08:13:31.232Z,990.22
2023-04-02T08:14:31.208Z,990.29
2023-04-02T08:15:31.175Z,990.28
2023-04-02T08:16:31.228Z,990.28
2023-04-02T08:18:03.193Z,990.31
2023-04-02T08:18:31.161Z,990.38
2023-04-02T08:19:31.901Z,990.36
2023-04-02T08:20:31.179Z,990.41
2023-04-02T08:21:31.148Z,990.46
2023-04-02T08:22:31.111Z,990.44
2023-04-02T08:23:31.116Z,990.44
2023-04-02T08:24:31.100Z,990.59
2023-04-02T08:25:31.089Z,990.53
2023-04-02T08:26:31.061Z,990.46
2023-04-02T08:27:31.119Z,990.56
2023-04-02T08:28:31.047Z,990.49
2023-04-02T08:29:31.119Z,990.64
2023-04-02T08:30:31.057Z,990.64
2023-04-02T08:31:31.073Z,990.71
2023-04-02T08:32:31.073Z,990.73
2023-04-02T08:33:31.043Z,990.71
2023-04-02T08:34:30.995Z,990.82
2023-04-02T08:35:31.027Z,990.81
2023-04-02T08:36:30.970Z,990.95
2023-04-02T08:37:30.943Z,990.86
2023-04-02T08:38:30.985Z,990.84
2023-04-02T08:39:30.953Z,990.92
2023-04-02T08:40:30.927Z,990.89
2023-04-02T08:41:30.934Z,990.89
2023-04-02T08:42:30.932Z,990.90
2023-04-02T08:43:30.969Z,990.90
2023-04-02T08:44:30.909Z,990.93
2023-04-02T08:45:30.906Z,990.83
2023-04-02T08:46:30.980Z,991.02
2023-04-02T08:47:30.925Z,991.04
2023-04-02T08:48:30.881Z,991.07
2023-04-02T08:49:30.900Z,991.12
2023-04-02T08:50:30.890Z,991.08
2023-04-02T08:51:30.860Z,990.98
2023-04-02T08:52:30.799Z,991.19
2023-04-02T08:53:30.846Z,991.08
2023-04-02T08:54:30.800Z,991.13
2023-04-02T08:55:30.804Z,991.09
2023-04-02T08:56:30.806Z,991.10
2023-04-02T08:57:30.864Z,991.12
2023-04-02T08:58:30.783Z,991.11
2023-04-02T08:59:30.744Z,991.18
2023-04-02T09:00:30.719Z,991.21
2023-04-02T09:01:30.792Z,991.13
2023-04-02T09:02:30.737Z,991.21
2023-04-02T09:03:30.739Z,991.19
2023-04-02T09:04:30.781Z,991.17
2023-04-02T09:05:30.764Z,991.22
2023-04-02T09:06:31.774Z,991.17
2023-04-02T09:07:30.776Z,991.20
2023-04-02T09:08:30.743Z,991.21
2023-04-02T09:09:30.679Z,991.26
2023-04-02T09:10:30.670Z,991.26
2023-04-02T09:11:30.656Z,991.41
2023-04-02T09:12:30.646Z,991.26
2023-04-02T09:13:30.606Z,991.40
2023-04-02T09:14:30.593Z,991.46
2023-04-02T09:15:30.632Z,991.43
2023-04-02T09:16:30.604Z,991.25
2023-04-02T09:17:42.630Z,991.45
2023-04-02T09:18:32.585Z,991.44
2023-04-02T09:19:30.563Z,991.51
2023-04-02T09:20:30.601Z,991.56
2023-04-02T09:21:30.557Z,991.56
2023-04-02T09:22:30.551Z,991.53
2023-04-02T09:23:30.547Z,991.50
2023-04-02T09:24:30.533Z,991.54
2023-04-02T09:25:30.516Z,991.55
2023-04-02T09:26:30.496Z,991.54
2023-04-02T09:27:30.499Z,991.53
2023-04-02T09:28:30.508Z,991.64
2023-04-02T09:29:30.436Z,991.63
2023-04-02T09:30:30.500Z,991.61
2023-04-02T09:31:30.506Z,991.65
2023-04-02T09:32:30.456Z,991.65
2023-04-02T09:33:30.430Z,991.67
2023-04-02T09:34:30.427Z,991.81
2023-04-02T09:35:30.441Z,991.74
2023-04-02T09:36:30.422Z,991.72
2023-04-02T09:37:30.383Z,991.74
2023-04-02T09:38:30.361Z,991.74
2023-04-02T09:39:30.373Z,991.78
2023-04-02T09:40:30.386Z,991.85
2023-04-02T09:41:30.333Z,991.79
2023-04-02T09:42:30.320Z,991.88
2023-04-02T09:43:30.373Z,991.81
2023-04-02T09:44:30.369Z,991.82
2023-04-02T09:45:30.305Z,991.85
2023-04-02T09:46:30.339Z,991.96
2023-04-02T09:47:30.332Z,991.90
2023-04-02T09:48:30.464Z,991.82
2023-04-02T09:49:30.265Z,991.89
2023-04-02T09:50:30.256Z,991.87
2023-04-02T09:51:30.245Z,991.80
2023-04-02T09:52:30.254Z,992.07
2023-04-02T09:53:30.244Z,991.91
2023-04-02T09:54:30.233Z,991.96
2023-04-02T09:55:30.211Z,991.90
2023-04-02T09:56:30.199Z,991.96
2023-04-02T09:57:30.293Z,991.91
2023-04-02T09:58:30.167Z,992.06
2023-04-02T09:59:30.172Z,992.06
2023-04-02T10:00:32.486Z,992.15
2023-04-02T10:01:31.237Z,992.05
2023-04-02T10:02:30.197Z,992.11
2023-04-02T10:03:30.148Z,992.11
2023-04-02T10:04:30.137Z,992.15
2023-04-02T10:06:32.125Z,992.29
2023-04-02T10:07:30.084Z,992.34
2023-04-02T10:08:30.074Z,992.29
2023-04-02T10:09:30.052Z,992.31
2023-04-02T10:10:30.096Z,992.32
2023-04-02T10:11:36.493Z,992.39
2023-04-02T10:12:32.038Z,992.31
2023-04-02T10:13:30.051Z,992.36
2023-04-02T10:14:29.995Z,992.26
2023-04-02T10:15:30.020Z,992.40
2023-04-02T10:16:30.078Z,992.40
2023-04-02T10:17:30.014Z,992.40
2023-04-02T10:18:29.973Z,992.41
2023-04-02T10:19:29.972Z,992.44
2023-04-02T10:20:32.121Z,992.40
2023-04-02T10:21:29.954Z,992.40
2023-04-02T10:22:29.970Z,992.49
2023-04-02T10:23:29.972Z,992.65
2023-04-02T10:24:29.973Z,992.51
2023-04-02T10:25:29.988Z,992.57
2023-04-02T10:26:29.901Z,992.51
2023-04-02T10:27:29.933Z,992.57
2023-04-02T10:28:29.896Z,992.69
2023-04-02T10:29:29.888Z,992.63
2023-04-02T10:30:29.925Z,992.77
2023-04-02T10:31:29.862Z,992.82
2023-04-02T10:32:29.886Z,992.73
2023-04-02T10:33:29.913Z,992.76
2023-04-02T10:34:29.822Z,992.78
2023-04-02T10:35:29.851Z,992.81
2023-04-02T10:36:29.818Z,992.81
2023-04-02T10:37:29.821Z,992.78
2023-04-02T10:38:29.833Z,992.72
2023-04-02T10:39:29.819Z,992.90
2023-04-02T10:40:29.761Z,992.95
2023-04-02T10:41:29.754Z,992.93
2023-04-02T10:42:29.752Z,992.92
2023-04-02T10:43:29.735Z,992.93
2023-04-02T10:44:29.721Z,992.91
2023-04-02T10:45:29.701Z,992.94
2023-04-02T10:46:29.807Z,992.98
2023-04-02T10:47:29.739Z,992.98
2023-04-02T10:48:29.737Z,993.10
2023-04-02T10:49:29.698Z,993.01
2023-04-02T10:50:29.697Z,993.04
2023-04-02T10:51:29.640Z,992.97
2023-04-02T10:52:29.690Z,993.06
2023-04-02T10:53:29.660Z,993.01
2023-04-02T10:54:29.638Z,993.08
2023-04-02T10:55:29.631Z,993.06
2023-04-02T10:56:35.107Z,993.15
2023-04-02T10:57:30.650Z,993.13
2023-04-02T10:58:29.599Z,993.19
2023-04-02T10:59:29.606Z,993.33
2023-04-02T11:00:29.596Z,993.11
2023-04-02T11:01:29.832Z,993.18
2023-04-02T11:02:29.614Z,993.13
2023-04-02T11:03:29.663Z,993.25
2023-04-02T11:04:29.548Z,993.18
2023-04-02T11:05:29.524Z,993.29
2023-04-02T11:06:29.509Z,993.23
2023-04-02T11:07:29.478Z,993.22
2023-04-02T11:08:29.472Z,993.26
2023-04-02T11:09:29.515Z,993.23
2023-04-02T11:10:29.481Z,993.28
2023-04-02T11:11:29.457Z,993.28
2023-04-02T11:12:29.463Z,993.34
2023-04-02T11:13:29.508Z,993.34
2023-04-02T11:14:29.468Z,993.30
2023-04-02T11:15:29.537Z,993.25
2023-04-02T11:16:29.553Z,993.30
2023-04-02T11:17:29.396Z,993.34
2023-04-02T11:18:29.413Z,993.34
2023-04-02T11:19:29.387Z,993.33
2023-04-02T11:20:29.373Z,993.35
2023-04-02T11:21:29.391Z,993.44
2023-04-02T11:22:29.336Z,993.41
2023-04-02T11:23:29.344Z,993.44
2023-04-02T11:24:29.314Z,993.44
2023-04-02T11:25:29.302Z,993.47
2023-04-02T11:26:29.324Z,993.48
2023-04-02T11:27:29.299Z,993.47
2023-04-02T11:28:29.301Z,993.42
2023-04-02T11:29:29.291Z,993.48
2023-04-02T11:30:29.293Z,993.56
2023-04-02T11:31:29.330Z,993.54
2023-04-02T11:32:29.306Z,993.61
2023-04-02T11:33:36.651Z,993.62
2023-04-02T11:34:30.267Z,993.56
2023-04-02T11:35:29.250Z,993.65
2023-04-02T11:36:29.229Z,993.65
2023-04-02T11:37:29.239Z,993.68
2023-04-02T11:38:29.179Z,993.67
2023-04-02T11:39:29.218Z,993.68
2023-04-02T11:40:29.187Z,993.69
2023-04-02T11:41:29.185Z,993.66
2023-04-02T11:42:29.176Z,993.70
2023-04-02T11:43:29.190Z,993.74
2023-04-02T11:44:29.121Z,993.80
2023-04-02T11:45:29.135Z,993.82
2023-04-02T11:46:29.191Z,993.77
2023-04-02T11:47:29.167Z,993.78
2023-04-02T11:48:29.143Z,993.89
2023-04-02T11:49:29.075Z,993.89
2023-04-02T11:50:29.060Z,993.91
2023-04-02T11:51:29.085Z,993.97
2023-04-02T11:52:29.081Z,993.91
2023-04-02T11:53:29.083Z,993.93
2023-04-02T11:54:29.060Z,993.97
2023-04-02T11:55:29.038Z,994.05
2023-04-02T11:56:29.079Z,993.99
2023-04-02T11:57:29.075Z,994.00
2023-04-02T11:58:29.021Z,994.01
2023-04-02T11:59:28.987Z,994.03
2023-04-02T12:00:28.990Z,994.05
2023-04-02T12:01:28.979Z,994.07
2023-04-02T12:02:29.090Z,994.11
2023-04-02T12:03:28.969Z,994.06
2023-04-02T12:04:28.974Z,994.11
2023-04-02T12:05:29.005Z,994.16
2023-04-02T12:06:28.959Z,994.12
2023-04-02T12:07:28.939Z,994.13
2023-04-02T12:08:28.909Z,994.18
2023-04-02T12:09:28.880Z,994.15
2023-04-02T12:10:28.890Z,994.21
2023-04-02T12:11:28.873Z,994.23
2023-04-02T12:12:28.875Z,994.31
2023-04-02T12:13:29.828Z,994.25
2023-04-02T12:14:28.834Z,994.27
2023-04-02T12:15:28.867Z,994.35
2023-04-02T12:16:28.884Z,994.27
2023-04-02T12:17:28.910Z,994.34
2023-04-02T12:18:28.798Z,994.29
2023-04-02T12:19:28.812Z,994.25
2023-04-02T12:20:28.855Z,994.36
2023-04-02T12:21:28.794Z,994.38
2023-04-02T12:22:28.753Z,994.39
2023-04-02T12:23:28.752Z,994.42
2023-04-02T12:24:28.746Z,994.41
2023-04-02T12:25:28.742Z,994.37
2023-04-02T12:26:28.739Z,994.46
2023-04-02T12:27:28.776Z,994.41
2023-04-02T12:28:28.702Z,994.41
2023-04-02T12:29:28.714Z,994.48
2023-04-02T12:30:28.678Z,994.51